Time;durP1;ratioP1;P1;durP2;ratioP2;P2;SDS_P1;SDS_P2;PMS_P1;PMS_P2;Temp;Humidity;BMP_temperature;BMP_pressure;BME280_temperature;BME280_humidity;BME280_pressure;Samples;Min_cycle;Max_cycle;Signal;HPM_P1;HPM_P2
2023/10/24 03:08:34;;;;;;;14.45;4.57;;;;;;;10.50;100.00;100142.66;5011998;23;20047;-69
2023/10/24 03:10:59;;;;;;;14.57;4.40;;;;;;;10.44;100.00;100142.00;4955022;28;20031;-70
2023/10/24 03:13:24;;;;;;;13.57;4.60;;;;;;;10.45;100.00;100147.22;4953785;28;20497;-70
2023/10/24 03:15:50;;;;;;;14.43;4.78;;;;;;;10.42;100.00;100138.78;4960093;28;20082;-70
2023/10/24 03:18:15;;;;;;;15.35;5.03;;;;;;;10.42;100.00;100144.31;4951837;29;20031;-70
2023/10/24 03:20:41;;;;;;;15.93;4.90;;;;;;;10.41;100.00;100139.91;4969033;28;20031;-69
2023/10/24 03:23:07;;;;;;;16.35;5.20;;;;;;;10.42;100.00;100144.31;4955073;28;20106;-69
2023/10/24 03:25:32;;;;;;;15.60;4.90;;;;;;;10.42;100.00;100147.88;4960950;28;20027;-68
2023/10/24 03:27:58;;;;;;;17.90;5.15;;;;;;;10.43;100.00;100145.94;4959022;28;20138;-69
2023/10/24 03:30:23;;;;;;;15.43;4.68;;;;;;;10.40;100.00;100149.34;4966555;28;20423;-68
2023/10/24 03:32:48;;;;;;;16.88;5.20;;;;;;;10.40;100.00;100149.34;4958788;28;20101;-68
2023/10/24 03:35:15;;;;;;;15.30;5.18;;;;;;;10.38;100.00;100149.66;4967442;28;20019;-68
2023/10/24 03:37:41;;;;;;;16.17;4.80;;;;;;;10.34;100.00;100145.88;4957948;28;20066;-68
2023/10/24 03:40:08;;;;;;;16.73;4.88;;;;;;;10.41;100.00;100145.44;4969843;28;20481;-69
2023/10/24 03:42:33;;;;;;;15.85;5.28;;;;;;;10.41;100.00;100145.44;4964291;28;20042;-68
2023/10/24 03:44:58;;;;;;;18.15;5.45;;;;;;;10.38;100.00;100146.06;4962256;28;20031;-69
2023/10/24 03:47:24;;;;;;;16.35;5.18;;;;;;;10.39;100.00;100133.88;4962352;28;20026;-68
2023/10/24 03:49:49;;;;;;;16.63;5.32;;;;;;;10.37;100.00;100139.75;4955801;28;20042;-70
2023/10/24 03:52:14;;;;;;;14.90;4.55;;;;;;;10.36;100.00;100143.59;4956967;28;20039;-67
2023/10/24 03:54:40;;;;;;;17.20;5.18;;;;;;;10.36;100.00;100143.59;4972140;28;20054;-68
2023/10/24 03:57:05;;;;;;;16.25;5.10;;;;;;;10.35;100.00;100139.22;4971929;28;20035;-68
2023/10/24 03:59:31;;;;;;;16.10;4.88;;;;;;;10.34;100.00;100148.63;4965680;28;20043;-68
2023/10/24 04:01:56;;;;;;;17.33;4.93;;;;;;;10.36;100.00;100151.91;4971743;28;20037;-68
2023/10/24 04:04:21;;;;;;;16.27;5.22;;;;;;;10.36;100.00;100151.06;4954513;28;20063;-68
2023/10/24 04:06:47;;;;;;;15.90;4.88;;;;;;;10.35;100.00;100153.03;4970170;28;20034;-69
2023/10/24 04:09:12;;;;;;;16.92;4.82;;;;;;;10.39;100.00;100158.75;4966651;28;20805;-67
2023/10/24 04:11:38;;;;;;;15.68;4.50;;;;;;;10.34;100.00;100148.63;4955181;28;20102;-68
2023/10/24 04:14:03;;;;;;;17.58;5.22;;;;;;;10.33;100.00;100138.72;4958641;28;20046;-67
2023/10/24 04:16:32;;;;;;;14.40;4.75;;;;;;;10.31;100.00;100143.75;4942974;29;20115;-67
2023/10/24 04:18:58;;;;;;;16.95;5.10;;;;;;;10.32;100.00;100145.38;4943212;29;20054;-70
2023/10/24 04:21:24;;;;;;;17.23;5.18;;;;;;;10.32;100.00;100139.03;4961165;28;20483;-68
2023/10/24 04:23:51;;;;;;;17.55;4.90;;;;;;;10.31;100.00;100143.75;4937278;29;20035;-68
2023/10/24 04:26:16;;;;;;;16.13;4.85;;;;;;;10.29;100.00;100129.44;4942840;28;20120;-67
2023/10/24 04:28:41;;;;;;;17.83;5.13;;;;;;;10.28;100.00;100131.38;4933401;29;20031;-67
2023/10/24 04:31:08;;;;;;;16.20;5.22;;;;;;;10.34;100.00;100125.72;4934627;29;20114;-69
2023/10/24 04:33:33;;;;;;;17.27;5.25;;;;;;;10.28;100.00;100114.78;4933008;29;20028;-68
2023/10/24 04:35:59;;;;;;;17.08;5.60;;;;;;;10.32;100.00;100112.19;4946892;29;20491;-69
2023/10/24 04:38:24;;;;;;;16.27;4.85;;;;;;;10.33;100.00;100110.25;4945734;29;20051;-69
2023/10/24 04:40:51;;;;;;;15.95;5.00;;;;;;;10.33;100.00;100111.06;4951799;28;20027;-69
2023/10/24 04:43:16;;;;;;;18.17;5.20;;;;;;;10.30;100.00;100107.00;4935340;29;20038;-68
2023/10/24 04:45:42;;;;;;;16.80;5.43;;;;;;;10.28;100.00;100100.97;4948792;29;20027;-68
2023/10/24 04:48:07;;;;;;;18.52;5.65;;;;;;;10.31;100.00;100118.84;4949049;28;20115;-68
2023/10/24 04:50:38;;;;;;;16.80;5.32;;;;;;;10.27;100.00;100106.84;4942903;29;20404;-68
2023/10/24 04:53:07;;;;;;;18.92;5.95;;;;;;;10.27;100.00;100115.13;4945872;29;20403;-69
2023/10/24 04:55:32;;;;;;;18.20;5.82;;;;;;;10.26;100.00;100114.28;4940402;29;20082;-68
2023/10/24 04:57:59;;;;;;;17.27;5.38;;;;;;;10.23;100.00;100119.66;4936400;29;20027;-68
2023/10/24 05:00:24;;;;;;;17.60;5.78;;;;;;;10.21;100.00;100111.69;4948418;28;20038;-69
2023/10/24 05:02:51;;;;;;;17.30;5.20;;;;;;;10.22;100.00;100118.03;4952195;29;20042;-69
2023/10/24 05:05:16;;;;;;;16.65;5.20;;;;;;;10.21;100.00;100127.44;4957744;28;20042;-68
2023/10/24 05:07:41;;;;;;;16.75;5.32;;;;;;;10.22;100.00;100129.09;4940341;28;20056;-67
2023/10/24 05:10:10;;;;;;;17.58;5.80;;;;;;;10.22;100.00;100129.09;4932855;29;20028;-68
2023/10/24 05:12:35;;;;;;;16.45;5.25;;;;;;;10.19;100.00;100135.28;4954720;28;20066;-68
2023/10/24 05:15:00;;;;;;;16.92;5.25;;;;;;;10.23;100.00;100128.78;4967219;28;20027;-68
2023/10/24 05:17:26;;;;;;;17.30;5.90;;;;;;;10.20;100.00;100131.38;4958585;28;20467;-68
2023/10/24 05:19:52;;;;;;;18.17;5.75;;;;;;;10.24;100.00;100135.09;4934631;29;20038;-68
2023/10/24 05:22:17;;;;;;;17.27;5.53;;;;;;;10.21;100.00;100124.69;4942476;28;20374;-68
2023/10/24 05:24:42;;;;;;;17.55;6.30;;;;;;;10.19;100.00;100136.06;4951144;29;20077;-67
2023/10/24 05:27:07;;;;;;;16.90;5.32;;;;;;;10.21;100.00;100127.44;4942808;28;20035;-69
2023/10/24 05:29:33;;;;;;;18.05;5.78;;;;;;;10.17;100.00;100124.53;4932183;29;20040;-69
2023/10/24 05:31:59;;;;;;;18.10;5.97;;;;;;;10.20;100.00;100126.66;4934808;29;20039;-68
2023/10/24 05:34:28;;;;;;;15.80;5.13;;;;;;;10.14;100.00;100125.97;4936936;29;20431;-68
2023/10/24 05:36:55;;;;;;;17.00;5.53;;;;;;;10.15;100.00;100116.56;4939000;29;20039;-67
2023/10/24 05:39:21;;;;;;;17.70;5.68;;;;;;;10.16;100.00;100114.59;4931255;29;20050;-67
2023/10/24 05:41:47;;;;;;;16.40;5.55;;;;;;;10.15;100.00;100094.44;4949821;28;20035;-68
2023/10/24 05:44:14;;;;;;;17.05;5.35;;;;;;;10.12;100.00;100097.03;4938184;28;20061;-68
2023/10/24 05:46:39;;;;;;;15.85;5.50;;;;;;;10.11;100.00;100100.94;4952343;28;20443;-68
2023/10/24 05:49:05;;;;;;;15.27;5.07;;;;;;;10.09;100.00;100105.97;4949428;28;20067;-68
2023/10/24 05:51:30;;;;;;;17.02;5.05;;;;;;;10.06;100.00;100107.44;4945376;28;20043;-68
2023/10/24 05:53:56;;;;;;;16.33;5.10;;;;;;;10.09;100.00;100105.97;4946774;28;20039;-68
2023/10/24 05:56:22;;;;;;;14.57;4.72;;;;;;;10.05;100.00;100114.09;4944021;29;20063;-68
2023/10/24 05:58:47;;;;;;;15.73;4.93;;;;;;;10.02;100.00;100100.91;4951196;29;20109;-68
2023/10/24 06:01:13;;;;;;;16.65;5.05;;;;;;;10.02;100.00;100111.97;4934167;29;20510;-69
2023/10/24 06:03:39;;;;;;;16.65;5.03;;;;;;;10.03;100.00;100110.03;4952746;28;20103;-69
2023/10/24 06:06:04;;;;;;;16.70;4.65;;;;;;;10.04;100.00;100115.22;4939726;28;20055;-69
2023/10/24 06:08:29;;;;;;;12.85;4.28;;;;;;;10.03;100.00;100124.63;4933558;29;20074;-69
2023/10/24 06:10:56;;;;;;;14.07;4.35;;;;;;;10.02;100.00;100127.72;4950843;28;20144;-69
2023/10/24 06:13:22;;;;;;;16.10;4.22;;;;;;;10.00;100.00;100133.59;4933763;29;20062;-69
2023/10/24 06:15:47;;;;;;;14.95;4.63;;;;;;;9.99;100.00;100124.47;4946552;28;20023;-70
2023/10/24 06:18:13;;;;;;;12.73;3.88;;;;;;;9.98;100.00;100133.88;4932110;29;20079;-69
2023/10/24 06:20:38;;;;;;;12.45;4.13;;;;;;;9.97;100.00;100126.72;4934826;29;20092;-70
2023/10/24 06:23:05;;;;;;;13.05;3.92;;;;;;;10.00;100.00;100122.53;4934439;28;20049;-70
2023/10/24 06:25:42;;;;;;;12.65;3.92;;;;;;;9.97;100.00;100107.38;4945552;29;20031;-68
2023/10/24 06:28:07;;;;;;;11.18;3.63;;;;;;;9.98;100.00;100103.50;4937061;29;20107;-68
2023/10/24 06:30:34;;;;;;;13.75;4.20;;;;;;;10.01;100.00;100101.22;4941408;28;20142;-68
2023/10/24 06:33:00;;;;;;;11.73;3.58;;;;;;;10.01;100.00;100106.75;4949503;29;20099;-69
2023/10/24 06:35:26;;;;;;;12.13;3.83;;;;;;;10.02;100.00;100124.97;4941797;28;20121;-69
2023/10/24 06:37:51;;;;;;;12.07;3.67;;;;;;;9.99;100.00;100124.47;4953757;28;20036;-69
2023/10/24 06:40:17;;;;;;;12.73;4.00;;;;;;;9.98;100.00;100125.59;4944144;29;20035;-69
2023/10/24 06:42:44;;;;;;;13.57;3.92;;;;;;;10.00;100.00;100139.13;4935722;29;20039;-69
2023/10/24 06:45:10;;;;;;;13.07;3.70;;;;;;;9.99;100.00;100149.34;4947573;29;20110;-68
2023/10/24 06:47:36;;;;;;;13.38;3.92;;;;;;;10.01;100.00;100156.50;4954012;28;20035;-68
2023/10/24 06:50:02;;;;;;;10.95;3.55;;;;;;;10.01;100.00;100151.81;4953322;29;20110;-68
2023/10/24 06:52:28;;;;;;;12.05;3.95;;;;;;;10.01;100.00;100150.97;4942130;29;20151;-69
2023/10/24 06:54:53;;;;;;;12.48;3.70;;;;;;;10.01;100.00;100149.03;4943905;29;20043;-69
2023/10/24 06:57:19;;;;;;;11.52;3.78;;;;;;;10.02;100.00;100147.88;4941557;29;20062;-68
2023/10/24 06:59:45;;;;;;;14.80;4.38;;;;;;;10.07;100.00;100139.47;4950296;28;20040;-68
2023/10/24 07:02:10;;;;;;;12.75;3.92;;;;;;;10.07;100.00;100146.91;4934759;29;20035;-69
2023/10/24 07:04:36;;;;;;;15.77;4.03;;;;;;;10.11;100.00;100137.66;4942707;29;20031;-69
2023/10/24 07:07:01;;;;;;;14.07;4.28;;;;;;;10.08;100.00;100134.72;4935900;29;20476;-70
2023/10/24 07:09:27;;;;;;;15.38;4.40;;;;;;;10.09;100.00;100136.38;4946142;28;20071;-70
2023/10/24 07:11:52;;;;;;;14.02;4.35;;;;;;;10.10;100.00;100129.72;4959318;28;20058;-70
2023/10/24 07:14:18;;;;;;;15.48;4.68;;;;;;;10.09;100.00;100120.63;4943662;29;20351;-71
2023/10/24 07:16:43;;;;;;;15.05;4.55;;;;;;;10.13;100.00;100127.13;4934775;29;20026;-70
2023/10/24 07:19:10;;;;;;;17.17;4.93;;;;;;;10.10;100.00;100138.00;4934585;29;20444;-71
2023/10/24 07:21:35;;;;;;;16.27;4.63;;;;;;;10.13;100.00;100134.59;4932949;29;20495;-71
2023/10/24 07:24:01;;;;;;;16.98;5.07;;;;;;;10.13;100.00;100131.84;4940313;29;20027;-70
2023/10/24 07:26:26;;;;;;;17.02;4.65;;;;;;;10.20;100.00;100125.84;4947393;29;20059;-71
2023/10/24 07:28:52;;;;;;;15.77;4.80;;;;;;;10.25;100.00;100125.69;4940251;29;20431;-70
2023/10/24 07:31:17;;;;;;;16.25;4.80;;;;;;;10.26;100.00;100132.84;4937089;29;20038;-70
2023/10/24 07:33:42;;;;;;;18.13;5.43;;;;;;;10.28;100.00;100125.06;4936403;29;20411;-71
2023/10/24 07:36:09;;;;;;;17.10;5.00;;;;;;;10.30;100.00;100120.81;4943979;29;20123;-70
2023/10/24 07:38:35;;;;;;;16.85;5.28;;;;;;;10.36;100.00;100117.88;4946980;29;20031;-71
2023/10/24 07:41:00;;;;;;;16.55;5.13;;;;;;;10.42;100.00;100133.25;4948840;29;20032;-72
2023/10/24 07:43:26;;;;;;;16.75;5.20;;;;;;;10.43;100.00;100135.66;4936496;29;20107;-71
2023/10/24 07:45:53;;;;;;;16.10;4.85;;;;;;;10.48;100.00;100134.72;4936348;29;20032;-71
2023/10/24 07:48:19;;;;;;;17.30;5.57;;;;;;;10.47;100.00;100124.78;4934984;29;20036;-71
2023/10/24 07:50:52;;;;;;;17.15;5.57;;;;;;;10.54;100.00;100129.84;4934993;29;20366;-71
2023/10/24 07:53:21;;;;;;;17.70;5.10;;;;;;;10.55;100.00;100125.94;4943688;29;20040;-70
2023/10/24 07:55:47;;;;;;;18.35;5.40;;;;;;;10.56;100.00;100114.53;4947789;29;20374;-70
2023/10/24 07:58:13;;;;;;;19.85;6.10;;;;;;;10.60;100.00;100117.47;4943516;29;20035;-71
2023/10/24 08:00:38;;;;;;;16.95;5.55;;;;;;;10.68;100.00;100119.41;4944731;29;20039;-71
2023/10/24 08:03:03;;;;;;;18.83;5.82;;;;;;;10.72;100.00;100125.16;4939797;29;20042;-72
2023/10/24 08:05:29;;;;;;;17.60;5.80;;;;;;;10.74;100.00;100120.06;4939610;29;20036;-71
2023/10/24 08:07:54;;;;;;;19.92;6.30;;;;;;;10.80;100.00;100117.97;4941174;29;20167;-70
2023/10/24 08:10:19;;;;;;;18.30;6.07;;;;;;;10.82;100.00;100110.97;4946249;28;20039;-71
2023/10/24 08:12:45;;;;;;;19.42;6.45;;;;;;;10.90;100.00;100112.09;4943963;29;20039;-71
2023/10/24 08:15:10;;;;;;;17.83;5.85;;;;;;;11.02;100.00;100106.72;4941686;28;20035;-70
2023/10/24 08:17:35;;;;;;;19.45;6.30;;;;;;;11.15;100.00;100115.16;4947756;29;20071;-70
2023/10/24 08:20:02;;;;;;;17.38;5.90;;;;;;;11.24;100.00;100113.22;4954243;29;20031;-69
2023/10/24 08:22:28;;;;;;;20.13;6.28;;;;;;;11.37;100.00;100125.25;4954224;29;20038;-70
2023/10/24 08:24:53;;;;;;;17.13;5.60;;;;;;;11.47;100.00;100118.53;4952725;29;20023;-70
2023/10/24 08:27:18;;;;;;;18.23;5.97;;;;;;;11.60;100.00;100113.94;4953439;28;20042;-69
2023/10/24 08:29:43;;;;;;;19.50;6.40;;;;;;;11.66;100.00;100116.19;4938795;29;20135;-70
2023/10/24 08:32:09;;;;;;;18.77;6.25;;;;;;;11.76;100.00;100126.09;4943263;29;20051;-70
2023/10/24 08:34:36;;;;;;;19.52;6.18;;;;;;;11.83;100.00;100128.34;4935100;28;20035;-70
2023/10/24 08:37:04;;;;;;;19.48;6.68;;;;;;;11.83;100.00;100131.94;4935382;29;20032;-71
2023/10/24 08:39:29;;;;;;;19.92;6.50;;;;;;;11.77;100.00;100135.22;4934196;29;20034;-64
2023/10/24 08:41:56;;;;;;;18.73;6.25;;;;;;;11.76;100.00;100155.75;4932191;29;20036;-64
2023/10/24 08:44:24;;;;;;;19.38;6.75;;;;;;;11.73;100.00;100153.66;4932033;29;20059;-64
2023/10/24 08:46:49;;;;;;;18.48;6.47;;;;;;;11.74;100.00;100158.03;4933663;29;20027;-66
2023/10/24 08:49:17;;;;;;;18.88;6.50;;;;;;;11.78;100.00;100164.56;4951375;29;20137;-67
2023/10/24 08:51:43;;;;;;;19.50;6.95;;;;;;;11.88;100.00;100152.28;4950464;29;20034;-67
2023/10/24 08:54:09;;;;;;;19.90;6.38;;;;;;;11.85;100.00;100139.91;4938183;29;20027;-67
2023/10/24 08:56:36;;;;;;;19.77;6.97;;;;;;;11.83;100.00;100137.50;4938852;29;20694;-67
2023/10/24 08:59:04;;;;;;;18.77;6.20;;;;;;;11.71;100.00;100131.81;4940327;29;20046;-67
2023/10/24 09:01:30;;;;;;;15.32;5.35;;;;;;;11.75;100.00;100143.88;4935243;29;20028;-67
2023/10/24 09:03:55;;;;;;;18.58;5.65;;;;;;;11.53;100.00;100148.50;4941370;29;20024;-67
2023/10/24 09:06:22;;;;;;;17.05;5.43;;;;;;;11.48;100.00;100147.84;4941602;29;20042;-67
2023/10/24 09:08:48;;;;;;;18.27;5.53;;;;;;;11.43;100.00;100150.81;4936918;29;20067;-66
2023/10/24 09:11:14;;;;;;;17.70;6.18;;;;;;;11.41;100.00;100148.34;4936976;29;20031;-66
2023/10/24 09:13:39;;;;;;;18.67;6.68;;;;;;;11.43;100.00;100132.22;4945779;29;20392;-67
2023/10/24 09:16:07;;;;;;;19.17;7.00;;;;;;;11.44;100.00;100120.00;4938233;29;20027;-68
2023/10/24 09:18:40;;;;;;;20.50;7.43;;;;;;;11.51;100.00;100123.06;4938632;29;20463;-67
2023/10/24 09:21:07;;;;;;;19.70;7.30;;;;;;;11.61;100.00;100130.25;4946441;29;20039;-67
2023/10/24 09:23:36;;;;;;;19.35;7.32;;;;;;;11.69;100.00;100111.94;4943618;29;20062;-67
2023/10/24 09:26:08;;;;;;;20.77;7.72;;;;;;;11.76;100.00;100103.91;4943284;28;20058;-67
2023/10/24 09:28:33;;;;;;;19.30;7.65;;;;;;;11.81;100.00;100100.16;4939775;29;20031;-66
2023/10/24 09:31:00;;;;;;;20.92;6.95;;;;;;;11.92;100.00;100106.16;4948399;29;20352;-66
2023/10/24 09:33:28;;;;;;;20.13;7.03;;;;;;;11.99;100.00;100107.28;4945500;29;20042;-66
2023/10/24 09:35:54;;;;;;;18.25;6.78;;;;;;;12.00;100.00;100111.66;4945936;28;20067;-66
2023/10/24 09:38:22;;;;;;;18.52;7.15;;;;;;;12.05;100.00;100112.63;4954762;28;20122;-66
2023/10/24 09:40:47;;;;;;;18.55;7.07;;;;;;;12.12;100.00;100107.38;4954352;29;20046;-67
2023/10/24 09:43:20;;;;;;;19.15;7.00;;;;;;;12.13;100.00;100118.16;4954547;28;20406;-67
2023/10/24 09:45:47;;;;;;;19.75;6.97;;;;;;;12.22;100.00;100114.50;4952441;28;20430;-68
2023/10/24 09:48:15;;;;;;;19.58;6.72;;;;;;;12.34;100.00;100125.66;4954560;28;20031;-67
2023/10/24 09:50:41;;;;;;;18.98;6.35;;;;;;;12.45;100.00;100112.25;4954153;29;20388;-67
2023/10/24 09:53:07;;;;;;;19.80;7.40;;;;;;;12.54;100.00;100101.91;4954119;28;20114;-67
2023/10/24 09:55:34;;;;;;;19.52;6.93;;;;;;;12.59;100.00;100106.44;4951477;29;20085;-67
2023/10/24 09:58:01;;;;;;;19.75;7.53;;;;;;;12.58;100.00;100104.81;4949258;29;20059;-66
2023/10/24 10:00:26;;;;;;;18.50;6.13;;;;;;;12.52;100.00;100106.97;4941023;29;20031;-67
2023/10/24 10:02:56;;;;;;;17.90;6.28;;;;;;;12.48;100.00;100106.81;4954675;28;20023;-68
2023/10/24 10:05:23;;;;;;;19.25;6.95;;;;;;;12.40;100.00;100102.16;4954433;28;20082;-67
2023/10/24 10:07:49;;;;;;;20.23;6.80;;;;;;;12.36;100.00;100115.06;4954554;28;20055;-67
2023/10/24 10:10:16;;;;;;;19.15;7.22;;;;;;;12.38;100.00;100112.75;4954690;28;20027;-67
2023/10/24 10:12:41;;;;;;;18.65;6.80;;;;;;;12.44;100.00;100108.63;4948188;28;20039;-67
2023/10/24 10:15:13;;;;;;;18.17;6.47;;;;;;;12.47;100.00;100115.47;4937469;28;20394;-67
2023/10/24 10:17:51;;;;;;;19.25;7.13;;;;;;;12.44;100.00;100105.84;4939301;28;20028;-68
2023/10/24 10:20:43;;;;;;;18.15;7.20;;;;;;;12.55;100.00;100117.38;4936267;29;20044;-68
2023/10/24 10:23:28;;;;;;;18.75;6.75;;;;;;;12.58;100.00;100122.25;4954184;29;20027;-67
2023/10/24 10:26:01;;;;;;;18.98;6.20;;;;;;;12.42;100.00;100112.91;4953087;29;20058;-67
2023/10/24 10:28:44;;;;;;;18.83;6.38;;;;;;;12.42;100.00;100113.69;4953759;28;20050;-67
2023/10/24 10:31:30;;;;;;;19.25;6.40;;;;;;;12.46;100.00;100119.41;4954495;28;20042;-67
2023/10/24 10:33:57;;;;;;;19.42;6.53;;;;;;;12.45;100.00;100118.59;4953894;28;20066;-68
2023/10/24 10:36:24;;;;;;;18.13;6.65;;;;;;;12.47;100.00;100104.38;4954014;28;20183;-68
2023/10/24 10:38:50;;;;;;;19.45;6.03;;;;;;;12.45;100.00;100107.50;4953177;28;20063;-68
2023/10/24 10:41:22;;;;;;;18.25;5.97;;;;;;;12.50;100.00;100103.69;4952404;29;20078;-68
2023/10/24 10:43:59;;;;;;;17.52;5.90;;;;;;;12.54;100.00;100092.75;4953685;29;20178;-68
2023/10/24 10:46:29;;;;;;;16.50;5.55;;;;;;;12.55;100.00;100091.59;4953954;28;20039;-68
2023/10/24 10:49:06;;;;;;;15.73;5.20;;;;;;;12.51;100.00;100088.69;4953552;28;20031;-67
2023/10/24 10:51:38;;;;;;;16.95;5.72;;;;;;;12.47;100.00;100096.88;4953771;28;20070;-67
2023/10/24 10:54:41;;;;;;;17.02;5.45;;;;;;;12.48;100.00;100100.44;4952693;28;20045;-67
2023/10/24 10:57:07;;;;;;;17.55;5.82;;;;;;;12.46;100.00;100097.22;4953733;28;20129;-67
2023/10/24 11:00:11;;;;;;;16.10;5.32;;;;;;;12.41;100.00;100091.84;4952305;29;20063;-67
2023/10/24 11:02:50;;;;;;;;;;;;;;;12.48;100.00;100092.13;4934594;29;20047;-67
2023/10/24 11:05:39;;;;;;;17.73;5.70;;;;;;;12.29;100.00;100089.81;4934183;29;19914;-67
2023/10/24 11:08:08;;;;;;;17.35;6.10;;;;;;;12.23;100.00;100094.75;4933788;29;20079;-67
2023/10/24 11:10:56;;;;;;;18.38;5.78;;;;;;;12.23;100.00;100093.94;4933926;29;20044;-67
2023/10/24 11:14:11;;;;;;;18.02;6.00;;;;;;;12.14;100.00;100089.25;4934096;29;20027;-68
2023/10/24 11:16:37;;;;;;;18.65;6.38;;;;;;;12.13;100.00;100089.59;4924432;29;20349;-67
2023/10/24 11:19:02;;;;;;;19.45;6.03;;;;;;;12.06;100.00;100083.75;4933577;29;20123;-67
2023/10/24 11:21:28;;;;;;;18.80;6.78;;;;;;;11.94;100.00;100096.34;4933813;29;20070;-67
2023/10/24 11:23:53;;;;;;;17.67;6.38;;;;;;;11.88;100.00;100092.16;4932229;29;20038;-67
2023/10/24 11:26:19;;;;;;;18.63;6.43;;;;;;;11.78;100.00;100087.78;4933776;29;20035;-67
2023/10/24 11:28:44;;;;;;;18.05;6.57;;;;;;;11.71;100.00;100090.25;4933637;29;20039;-67
2023/10/24 11:31:23;;;;;;;16.33;5.63;;;;;;;11.63;100.00;100094.69;4933828;29;20032;-68
2023/10/24 11:33:49;;;;;;;17.42;5.97;;;;;;;11.58;100.00;100096.81;4934307;29;20048;-67
2023/10/24 11:36:15;;;;;;;17.92;5.28;;;;;;;11.64;100.00;100088.00;4952431;29;20363;-68
2023/10/24 11:38:40;;;;;;;16.27;5.38;;;;;;;11.70;100.00;100099.72;4942800;29;20043;-68
2023/10/24 11:41:06;;;;;;;16.95;5.10;;;;;;;11.75;100.00;100093.16;4931885;29;20040;-67
2023/10/24 11:43:32;;;;;;;15.27;5.18;;;;;;;11.81;100.00;100094.59;4933259;29;20034;-67
2023/10/24 11:45:58;;;;;;;15.80;5.05;;;;;;;11.77;100.00;100091.69;4933544;29;20511;-67
2023/10/24 11:48:24;;;;;;;14.77;4.70;;;;;;;11.73;100.00;100076.06;4933461;29;20143;-68
2023/10/24 11:50:49;;;;;;;13.98;4.47;;;;;;;11.68;100.00;100088.97;4932901;29;20050;-68
2023/10/24 11:53:22;;;;;;;13.00;3.88;;;;;;;11.65;100.00;100092.41;4933627;29;20065;-68
2023/10/24 11:55:48;;;;;;;11.65;3.83;;;;;;;11.60;100.00;100092.59;4932573;29;20042;-68
2023/10/24 11:58:14;;;;;;;13.15;4.55;;;;;;;11.59;100.00;100085.44;4933320;29;20507;-68
2023/10/24 12:00:40;;;;;;;13.02;4.50;;;;;;;11.53;100.00;100078.41;4934820;29;20027;-68
2023/10/24 12:03:06;;;;;;;14.80;4.30;;;;;;;11.50;100.00;100079.91;4937700;29;20039;-68
2023/10/24 12:05:32;;;;;;;13.73;4.03;;;;;;;11.42;100.00;100079.94;4934882;29;20792;-68
2023/10/24 12:07:59;;;;;;;14.43;4.35;;;;;;;11.37;100.00;100078.97;4949458;29;20074;-68
2023/10/24 12:10:29;;;;;;;15.60;4.80;;;;;;;11.33;100.00;100066.13;4942291;29;20547;-68
2023/10/24 12:12:59;;;;;;;13.45;4.63;;;;;;;11.28;100.00;100071.84;4935187;29;20031;-68
2023/10/24 12:15:26;;;;;;;14.48;4.50;;;;;;;11.27;100.00;100073.78;4943428;29;20126;-68
2023/10/24 12:17:51;;;;;;;15.88;4.53;;;;;;;11.20;100.00;100068.75;4952486;29;20031;-68
2023/10/24 12:20:18;;;;;;;15.95;4.70;;;;;;;11.16;100.00;100065.03;4941046;28;20078;-68
2023/10/24 12:22:46;;;;;;;14.15;4.85;;;;;;;11.14;100.00;100064.53;4950396;28;20613;-68
2023/10/24 12:25:13;;;;;;;14.63;4.60;;;;;;;11.08;100.00;100057.56;4946279;29;20039;-67
2023/10/24 12:27:38;;;;;;;13.00;4.47;;;;;;;11.03;100.00;100050.25;4932535;29;20031;-68
2023/10/24 12:30:04;;;;;;;17.92;5.00;;;;;;;11.07;100.00;100047.63;4931223;29;20074;-68
2023/10/24 12:32:29;;;;;;;16.13;5.00;;;;;;;11.08;100.00;100049.25;4932819;29;20042;-68
2023/10/24 12:34:55;;;;;;;14.82;4.72;;;;;;;11.10;100.00;100043.38;4933317;29;20102;-68
2023/10/24 12:37:20;;;;;;;15.15;4.60;;;;;;;11.07;100.00;100045.66;4936803;29;20494;-68
2023/10/24 12:39:46;;;;;;;13.57;4.60;;;;;;;11.04;100.00;100049.09;4932621;29;20467;-68
2023/10/24 12:42:11;;;;;;;14.50;4.68;;;;;;;11.11;100.00;100051.34;4937143;29;20035;-68
2023/10/24 12:44:38;;;;;;;14.95;4.80;;;;;;;11.13;100.00;100057.38;4948714;29;20775;-68
2023/10/24 12:47:03;;;;;;;15.35;4.72;;;;;;;11.17;100.00;100063.06;4943528;28;20052;-68
2023/10/24 12:49:29;;;;;;;16.38;4.80;;;;;;;11.19;100.00;100050.50;4939575;28;20561;-67
2023/10/24 12:51:56;;;;;;;17.17;5.10;;;;;;;11.28;100.00;100050.50;4933488;29;20039;-68
2023/10/24 12:54:22;;;;;;;13.60;4.70;;;;;;;11.55;100.00;100057.56;4954303;28;20380;-68
2023/10/24 12:56:47;;;;;;;15.00;4.63;;;;;;;11.81;100.00;100051.09;4932081;29;20040;-68
2023/10/24 12:59:12;;;;;;;12.40;4.03;;;;;;;12.07;100.00;100043.81;4933968;29;20034;-67
2023/10/24 13:01:38;;;;;;;13.00;4.00;;;;;;;12.29;100.00;100059.31;4931716;29;20027;-68
2023/10/24 13:04:03;;;;;;;11.95;3.83;;;;;;;12.41;100.00;100059.41;4939461;29;20031;-68
2023/10/24 13:06:30;;;;;;;11.55;3.97;;;;;;;12.52;100.00;100048.69;4934223;29;20035;-67
2023/10/24 13:08:55;;;;;;;12.25;3.65;;;;;;;12.59;100.00;100059.25;4937445;28;20070;-67
2023/10/24 13:11:20;;;;;;;11.60;3.75;;;;;;;12.65;100.00;100049.56;4939791;29;20027;-68
2023/10/24 13:13:46;;;;;;;10.45;3.50;;;;;;;12.75;100.00;100057.47;4934665;29;20166;-67
2023/10/24 13:16:11;;;;;;;8.98;3.45;;;;;;;12.77;100.00;100051.56;4945215;29;20027;-67
2023/10/24 13:18:36;;;;;;;12.32;3.60;;;;;;;12.79;100.00;100049.28;4954268;28;20348;-68
2023/10/24 13:21:02;;;;;;;9.20;3.20;;;;;;;12.82;100.00;100045.84;4954458;28;20166;-68
2023/10/24 13:23:27;;;;;;;9.68;3.10;;;;;;;12.86;100.00;100038.44;4950821;28;20129;-67
2023/10/24 13:25:53;;;;;;;7.45;2.78;;;;;;;12.91;100.00;100037.41;4951406;28;20035;-67
2023/10/24 13:28:21;;;;;;;9.70;2.90;;;;;;;12.82;100.00;100031.94;4951473;28;20031;-68
2023/10/24 13:30:48;;;;;;;7.90;2.90;;;;;;;12.84;100.00;100035.22;4949228;29;20027;-68
2023/10/24 13:33:13;;;;;;;10.82;2.95;;;;;;;12.85;100.00;100039.56;4950976;29;20491;-69
2023/10/24 13:35:38;;;;;;;11.10;2.88;;;;;;;12.86;100.00;100041.19;4950997;29;20054;-68
2023/10/24 13:38:04;;;;;;;8.88;2.72;;;;;;;12.87;100.00;100036.47;4950937;28;20054;-67
2023/10/24 13:40:29;;;;;;;7.45;2.40;;;;;;;12.88;100.00;100030.56;4950952;29;20383;-67
2023/10/24 13:42:54;;;;;;;6.70;2.47;;;;;;;12.88;100.00;100038.91;4951657;29;20035;-68
2023/10/24 13:45:20;;;;;;;5.07;2.22;;;;;;;12.84;100.00;100034.38;4950184;29;20027;-67
2023/10/24 13:47:45;;;;;;;5.75;2.33;;;;;;;12.84;100.00;100031.59;4952815;29;20344;-67
2023/10/24 13:50:10;;;;;;;9.00;2.50;;;;;;;12.85;100.00;100039.56;4950504;29;20062;-67
2023/10/24 13:52:36;;;;;;;7.13;2.20;;;;;;;12.85;100.00;100041.56;4951113;29;20483;-67
2023/10/24 13:55:01;;;;;;;9.15;2.40;;;;;;;12.86;100.00;100049.53;4949913;29;20042;-67
2023/10/24 13:57:26;;;;;;;6.45;2.40;;;;;;;12.81;100.00;100049.75;4950762;29;20142;-66
2023/10/24 13:59:52;;;;;;;7.20;2.17;;;;;;;12.86;100.00;100054.28;4950404;29;20031;-67
2023/10/24 14:02:17;;;;;;;8.25;2.55;;;;;;;12.98;100.00;100050.72;4950373;29;20027;-67
2023/10/24 14:04:42;;;;;;;7.55;2.25;;;;;;;12.99;100.00;100057.91;4950339;29;20042;-67
2023/10/24 14:07:09;;;;;;;5.88;2.13;;;;;;;12.93;100.00;100046.22;4950657;29;20142;-67
2023/10/24 14:09:34;;;;;;;7.43;2.33;;;;;;;12.89;100.00;100045.28;4950470;28;20055;-66
2023/10/24 14:11:59;;;;;;;7.35;2.00;;;;;;;12.85;100.00;100058.22;4950963;28;20767;-67
2023/10/24 14:14:26;;;;;;;6.05;2.30;;;;;;;12.80;100.00;100054.47;4954203;29;20031;-67
2023/10/24 14:16:53;;;;;;;6.68;2.15;;;;;;;12.84;100.00;100064.91;4954478;29;20466;-67